sensor_id;sensor_type;location;lat;lon;timestamp;pressure;altitude;pressure_sealevel;temperature;humidity
44140;BME280;29803;51.048;4.686;2022-12-13T00:02:11;101146.34;;;-6.69;100.00
44140;BME280;29803;51.048;4.686;2022-12-13T00:04:42;101147.25;;;-6.70;100.00
44140;BME280;29803;51.048;4.686;2022-12-13T00:07:12;101146.41;;;-6.70;100.00
44140;BME280;29803;51.048;4.686;2022-12-13T00:09:43;101149.91;;;-6.71;100.00
44140;BME280;29803;51.048;4.686;2022-12-13T00:12:13;101153.47;;;-6.74;100.00
44140;BME280;29803;51.048;4.686;2022-12-13T00:14:44;101152.66;;;-6.76;100.00
44140;BME280;29803;51.048;4.686;2022-12-13T00:17:14;101151.75;;;-6.75;100.00
44140;BME280;29803;51.048;4.686;2022-12-13T00:19:48;101156.06;;;-6.74;100.00
44140;BME280;29803;51.048;4.686;2022-12-13T00:22:18;101147.34;;;-6.73;100.00
44140;BME280;29803;51.048;4.686;2022-12-13T00:24:49;101144.72;;;-6.73;100.00
44140;BME280;29803;51.048;4.686;2022-12-13T00:27:19;101144.72;;;-6.73;100.00
44140;BME280;29803;51.048;4.686;2022-12-13T00:29:50;101135.19;;;-6.74;100.00
44140;BME280;29803;51.048;4.686;2022-12-13T00:32:20;101139.50;;;-6.73;100.00
44140;BME280;29803;51.048;4.686;2022-12-13T00:34:51;101143.84;;;-6.72;100.00
44140;BME280;29803;51.048;4.686;2022-12-13T00:37:21;101135.97;;;-6.70;100.00
44140;BME280;29803;51.048;4.686;2022-12-13T00:39:52;101131.59;;;-6.70;100.00
44140;BME280;29803;51.048;4.686;2022-12-13T00:42:22;101123.69;;;-6.67;100.00
44140;BME280;29803;51.048;4.686;2022-12-13T00:44:53;101121.91;;;-6.66;100.00
44140;BME280;29803;51.048;4.686;2022-12-13T00:47:23;101124.47;;;-6.65;100.00
44140;BME280;29803;51.048;4.686;2022-12-13T00:49:54;101120.94;;;-6.64;100.00
44140;BME280;29803;51.048;4.686;2022-12-13T00:52:24;101117.44;;;-6.63;100.00
44140;BME280;29803;51.048;4.686;2022-12-13T00:54:54;101117.50;;;-6.64;100.00
44140;BME280;29803;51.048;4.686;2022-12-13T00:57:26;101114.03;;;-6.65;100.00
44140;BME280;29803;51.048;4.686;2022-12-13T00:59:56;101113.19;;;-6.65;100.00
44140;BME280;29803;51.048;4.686;2022-12-13T01:02:27;101111.47;;;-6.66;100.00
44140;BME280;29803;51.048;4.686;2022-12-13T01:04:57;101112.47;;;-6.70;100.00
44140;BME280;29803;51.048;4.686;2022-12-13T01:07:28;101109.06;;;-6.72;100.00
44140;BME280;29803;51.048;4.686;2022-12-13T01:09:58;101107.31;;;-6.72;100.00
44140;BME280;29803;51.048;4.686;2022-12-13T01:12:29;101106.56;;;-6.75;100.00
44140;BME280;29803;51.048;4.686;2022-12-13T01:14:59;101099.63;;;-6.76;100.00
44140;BME280;29803;51.048;4.686;2022-12-13T01:17:30;101098.81;;;-6.79;100.00
44140;BME280;29803;51.048;4.686;2022-12-13T01:20:02;101106.66;;;-6.79;100.00
44140;BME280;29803;51.048;4.686;2022-12-13T01:22:33;101101.44;;;-6.79;100.00
44140;BME280;29803;51.048;4.686;2022-12-13T01:25:03;101095.47;;;-6.82;100.00
44140;BME280;29803;51.048;4.686;2022-12-13T01:27:34;101095.50;;;-6.84;100.00
44140;BME280;29803;51.048;4.686;2022-12-13T01:30:05;101104.19;;;-6.83;100.00
44140;BME280;29803;51.048;4.686;2022-12-13T01:32:35;101095.56;;;-6.85;100.00
44140;BME280;29803;51.048;4.686;2022-12-13T01:35:06;101090.34;;;-6.85;100.00
44140;BME280;29803;51.048;4.686;2022-12-13T01:37:37;101094.63;;;-6.83;100.00
44140;BME280;29803;51.048;4.686;2022-12-13T01:40:08;101098.88;;;-6.80;100.00
44140;BME280;29803;51.048;4.686;2022-12-13T01:42:39;101106.75;;;-6.82;100.00
44140;BME280;29803;51.048;4.686;2022-12-13T01:45:23;101112.97;;;-6.86;100.00
44140;BME280;29803;51.048;4.686;2022-12-13T01:47:57;101114.81;;;-6.89;100.00
44140;BME280;29803;51.048;4.686;2022-12-13T01:50:36;101117.53;;;-6.92;100.00
44140;BME280;29803;51.048;4.686;2022-12-13T01:53:10;101124.59;;;-6.96;100.00
44140;BME280;29803;51.048;4.686;2022-12-13T01:55:45;101121.16;;;-6.96;100.00
44140;BME280;29803;51.048;4.686;2022-12-13T01:58:17;101136.78;;;-6.96;100.00
44140;BME280;29803;51.048;4.686;2022-12-13T02:00:48;101126.38;;;-6.96;100.00
44140;BME280;29803;51.048;4.686;2022-12-13T02:03:20;101117.63;;;-6.95;100.00
44140;BME280;29803;51.048;4.686;2022-12-13T02:08:26;101108.09;;;-6.96;100.00
44140;BME280;29803;51.048;4.686;2022-12-13T02:10:59;101104.66;;;-6.98;100.00
44140;BME280;29803;51.048;4.686;2022-12-13T02:13:30;101100.41;;;-7.01;100.00
44140;BME280;29803;51.048;4.686;2022-12-13T02:22:04;101095.22;;;-7.01;100.00
44140;BME280;29803;51.048;4.686;2022-12-13T02:30:24;101088.16;;;-6.97;100.00
44140;BME280;29803;51.048;4.686;2022-12-13T02:35:42;101083.94;;;-7.01;100.00
44140;BME280;29803;51.048;4.686;2022-12-13T02:38:24;101085.78;;;-7.05;100.00
44140;BME280;29803;51.048;4.686;2022-12-13T02:41:04;101090.22;;;-7.09;100.00
44140;BME280;29803;51.048;4.686;2022-12-13T02:43:51;101089.50;;;-7.14;100.00
44140;BME280;29803;51.048;4.686;2022-12-13T02:46:27;101079.09;;;-7.14;100.00
44140;BME280;29803;51.048;4.686;2022-12-13T02:49:00;101087.72;;;-7.12;100.00
44140;BME280;29803;51.048;4.686;2022-12-13T02:51:31;101083.38;;;-7.11;100.00
44140;BME280;29803;51.048;4.686;2022-12-13T02:54:02;101083.38;;;-7.11;100.00
44140;BME280;29803;51.048;4.686;2022-12-13T02:56:34;101077.28;;;-7.12;100.00
44140;BME280;29803;51.048;4.686;2022-12-13T02:59:11;101082.50;;;-7.12;100.00
44140;BME280;29803;51.048;4.686;2022-12-13T03:01:52;101081.59;;;-7.11;100.00
44140;BME280;29803;51.048;4.686;2022-12-13T03:07:38;101077.28;;;-7.12;100.00
44140;BME280;29803;51.048;4.686;2022-12-13T03:10:21;101080.84;;;-7.14;100.00
44140;BME280;29803;51.048;4.686;2022-12-13T03:13:12;101080.91;;;-7.16;100.00
44140;BME280;29803;51.048;4.686;2022-12-13T03:16:32;101093.94;;;-7.16;100.00
44140;BME280;29803;51.048;4.686;2022-12-13T03:19:14;101087.81;;;-7.15;100.00
44140;BME280;29803;51.048;4.686;2022-12-13T03:21:52;101084.34;;;-7.15;100.00
44140;BME280;29803;51.048;4.686;2022-12-13T03:24:22;101093.94;;;-7.16;100.00
44140;BME280;29803;51.048;4.686;2022-12-13T03:26:53;101089.50;;;-7.14;100.00
44140;BME280;29803;51.048;4.686;2022-12-13T03:29:24;101079.91;;;-7.12;100.00
44140;BME280;29803;51.048;4.686;2022-12-13T03:31:54;101079.78;;;-7.09;100.00
44140;BME280;29803;51.048;4.686;2022-12-13T03:34:25;101083.22;;;-7.07;100.00
44140;BME280;29803;51.048;4.686;2022-12-13T03:36:55;101081.41;;;-7.05;100.00
44140;BME280;29803;51.048;4.686;2022-12-13T03:39:26;101086.47;;;-7.00;100.00
44140;BME280;29803;51.048;4.686;2022-12-13T03:41:56;101087.25;;;-6.96;100.00
44140;BME280;29803;51.048;4.686;2022-12-13T03:44:27;101083.66;;;-6.94;100.00
44140;BME280;29803;51.048;4.686;2022-12-13T03:46:57;101075.00;;;-6.94;100.00
44140;BME280;29803;51.048;4.686;2022-12-13T03:49:28;101068.06;;;-6.95;100.00
44140;BME280;29803;51.048;4.686;2022-12-13T03:51:58;101071.53;;;-6.95;100.00
44140;BME280;29803;51.048;4.686;2022-12-13T03:54:29;101060.19;;;-6.94;100.00
44140;BME280;29803;51.048;4.686;2022-12-13T03:56:59;101058.25;;;-6.87;100.00
44140;BME280;29803;51.048;4.686;2022-12-13T03:59:30;101051.16;;;-6.84;100.00
44140;BME280;29803;51.048;4.686;2022-12-13T04:02:00;101051.13;;;-6.82;100.00
44140;BME280;29803;51.048;4.686;2022-12-13T04:04:31;101046.69;;;-6.80;100.00
44140;BME280;29803;51.048;4.686;2022-12-13T04:07:01;101043.09;;;-6.76;100.00
44140;BME280;29803;51.048;4.686;2022-12-13T04:09:32;101049.06;;;-6.72;100.00
44140;BME280;29803;51.048;4.686;2022-12-13T04:12:02;101047.25;;;-6.70;100.00
44140;BME280;29803;51.048;4.686;2022-12-13T04:14:51;101044.56;;;-6.69;100.00
44140;BME280;29803;51.048;4.686;2022-12-13T04:17:21;101048.03;;;-6.68;100.00
44140;BME280;29803;51.048;4.686;2022-12-13T04:19:52;101047.19;;;-6.69;100.00
44140;BME280;29803;51.048;4.686;2022-12-13T04:22:22;101046.34;;;-6.69;100.00
44140;BME280;29803;51.048;4.686;2022-12-13T04:24:53;101036.88;;;-6.72;100.00
44140;BME280;29803;51.048;4.686;2022-12-13T04:27:23;101035.25;;;-6.76;100.00
44140;BME280;29803;51.048;4.686;2022-12-13T04:29:54;101038.88;;;-6.80;100.00
44140;BME280;29803;51.048;4.686;2022-12-13T04:32:24;101033.88;;;-6.86;100.00
44140;BME280;29803;51.048;4.686;2022-12-13T04:34:55;101029.66;;;-6.90;100.00
44140;BME280;29803;51.048;4.686;2022-12-13T04:37:25;101033.25;;;-6.94;100.00
44140;BME280;29803;51.048;4.686;2022-12-13T04:39:55;101022.94;;;-6.97;100.00
44140;BME280;29803;51.048;4.686;2022-12-13T04:42:26;101021.22;;;-6.98;100.00
44140;BME280;29803;51.048;4.686;2022-12-13T04:44:57;101016.00;;;-6.98;100.00
44140;BME280;29803;51.048;4.686;2022-12-13T04:47:27;101016.91;;;-6.99;100.00
44140;BME280;29803;51.048;4.686;2022-12-13T04:49:58;101007.38;;;-7.00;100.00
44140;BME280;29803;51.048;4.686;2022-12-13T04:52:28;101009.19;;;-7.02;100.00
44140;BME280;29803;51.048;4.686;2022-12-13T04:54:59;101013.59;;;-7.05;100.00
44140;BME280;29803;51.048;4.686;2022-12-13T04:57:30;101013.75;;;-7.09;100.00
44140;BME280;29803;51.048;4.686;2022-12-13T05:00:02;101015.63;;;-7.13;100.00
44140;BME280;29803;51.048;4.686;2022-12-13T05:02:33;101022.63;;;-7.15;100.00
44140;BME280;29803;51.048;4.686;2022-12-13T05:05:03;101021.84;;;-7.18;100.00
44140;BME280;29803;51.048;4.686;2022-12-13T05:07:34;101017.69;;;-7.22;100.00
44140;BME280;29803;51.048;4.686;2022-12-13T05:10:05;101018.66;;;-7.26;100.00
44140;BME280;29803;51.048;4.686;2022-12-13T05:12:36;101012.75;;;-7.32;100.00
44140;BME280;29803;51.048;4.686;2022-12-13T05:15:07;101014.59;;;-7.35;100.00
44140;BME280;29803;51.048;4.686;2022-12-13T05:17:37;101020.78;;;-7.39;100.00
44140;BME280;29803;51.048;4.686;2022-12-13T05:20:08;101012.25;;;-7.43;100.00
44140;BME280;29803;51.048;4.686;2022-12-13T05:22:39;101015.88;;;-7.48;100.00
44140;BME280;29803;51.048;4.686;2022-12-13T05:25:09;101031.75;;;-7.56;100.00
44140;BME280;29803;51.048;4.686;2022-12-13T05:27:40;101022.38;;;-7.62;100.00
44140;BME280;29803;51.048;4.686;2022-12-13T05:30:10;101018.94;;;-7.64;100.00
44140;BME280;29803;51.048;4.686;2022-12-13T05:32:41;101032.03;;;-7.65;100.00
44140;BME280;29803;51.048;4.686;2022-12-13T05:35:13;101032.09;;;-7.67;100.00
44140;BME280;29803;51.048;4.686;2022-12-13T05:37:45;101030.47;;;-7.71;100.00
44140;BME280;29803;51.048;4.686;2022-12-13T05:40:15;101033.28;;;-7.78;100.00
44140;BME280;29803;51.048;4.686;2022-12-13T05:42:46;101031.78;;;-7.86;100.00
44140;BME280;29803;51.048;4.686;2022-12-13T05:45:17;101040.56;;;-7.90;100.00
44140;BME280;29803;51.048;4.686;2022-12-13T05:47:48;101044.97;;;-7.92;100.00
44140;BME280;29803;51.048;4.686;2022-12-13T05:50:18;101045.97;;;-7.96;100.00
44140;BME280;29803;51.048;4.686;2022-12-13T05:52:49;101037.44;;;-8.01;100.00
44140;BME280;29803;51.048;4.686;2022-12-13T05:55:19;101037.50;;;-8.04;100.00
44140;BME280;29803;51.048;4.686;2022-12-13T05:57:50;101028.91;;;-8.06;100.00
44140;BME280;29803;51.048;4.686;2022-12-13T06:00:20;101037.59;;;-8.07;100.00
44140;BME280;29803;51.048;4.686;2022-12-13T06:02:51;101034.22;;;-8.11;100.00
44140;BME280;29803;51.048;4.686;2022-12-13T06:05:21;101045.53;;;-8.12;100.00
44140;BME280;29803;51.048;4.686;2022-12-13T06:07:53;101038.63;;;-8.13;100.00
44140;BME280;29803;51.048;4.686;2022-12-13T06:10:25;101044.72;;;-8.14;100.00
44140;BME280;29803;51.048;4.686;2022-12-13T06:12:56;101046.59;;;-8.19;100.00
44140;BME280;29803;51.048;4.686;2022-12-13T06:15:26;101028.47;;;-8.22;100.00
44140;BME280;29803;51.048;4.686;2022-12-13T06:18:00;101023.28;;;-8.22;100.00
44140;BME280;29803;51.048;4.686;2022-12-13T06:20:30;101017.22;;;-8.22;100.00
44140;BME280;29803;51.048;4.686;2022-12-13T06:23:00;101028.50;;;-8.23;100.00
44140;BME280;29803;51.048;4.686;2022-12-13T06:25:31;101010.28;;;-8.23;100.00
44140;BME280;29803;51.048;4.686;2022-12-13T06:28:01;101028.56;;;-8.25;100.00
44140;BME280;29803;51.048;4.686;2022-12-13T06:30:32;101024.25;;;-8.26;100.00
44140;BME280;29803;51.048;4.686;2022-12-13T06:33:02;101022.44;;;-8.24;100.00
44140;BME280;29803;51.048;4.686;2022-12-13T06:35:33;101011.16;;;-8.23;100.00
44140;BME280;29803;51.048;4.686;2022-12-13T06:38:03;101013.75;;;-8.23;100.00
44140;BME280;29803;51.048;4.686;2022-12-13T06:40:34;101011.19;;;-8.24;100.00
44140;BME280;29803;51.048;4.686;2022-12-13T06:43:04;101008.63;;;-8.26;100.00
44140;BME280;29803;51.048;4.686;2022-12-13T06:45:38;101013.91;;;-8.29;100.00
44140;BME280;29803;51.048;4.686;2022-12-13T06:48:09;101000.94;;;-8.30;100.00
44140;BME280;29803;51.048;4.686;2022-12-13T06:50:41;101003.69;;;-8.35;100.00
44140;BME280;29803;51.048;4.686;2022-12-13T06:53:11;101002.91;;;-8.37;100.00
44140;BME280;29803;51.048;4.686;2022-12-13T06:55:42;101004.75;;;-8.41;100.00
44140;BME280;29803;51.048;4.686;2022-12-13T06:58:12;101003.16;;;-8.46;100.00
44140;BME280;29803;51.048;4.686;2022-12-13T07:00:42;101008.44;;;-8.49;100.00
44140;BME280;29803;51.048;4.686;2022-12-13T07:03:13;101003.34;;;-8.54;100.00
44140;BME280;29803;51.048;4.686;2022-12-13T07:05:44;101011.22;;;-8.55;100.00
44140;BME280;29803;51.048;4.686;2022-12-13T07:08:15;101000.00;;;-8.57;100.00
44140;BME280;29803;51.048;4.686;2022-12-13T07:10:45;101001.72;;;-8.56;100.00
44140;BME280;29803;51.048;4.686;2022-12-13T07:13:15;101009.50;;;-8.56;100.00
44140;BME280;29803;51.048;4.686;2022-12-13T07:15:46;101008.66;;;-8.57;100.00
44140;BME280;29803;51.048;4.686;2022-12-13T07:18:17;101006.91;;;-8.56;100.00
44140;BME280;29803;51.048;4.686;2022-12-13T07:20:47;101008.63;;;-8.55;100.00
44140;BME280;29803;51.048;4.686;2022-12-13T07:23:18;101011.22;;;-8.55;100.00
44140;BME280;29803;51.048;4.686;2022-12-13T07:25:52;101009.50;;;-8.56;100.00
44140;BME280;29803;51.048;4.686;2022-12-13T07:28:23;101015.56;;;-8.56;100.00
44140;BME280;29803;51.048;4.686;2022-12-13T07:30:53;101014.78;;;-8.58;100.00
44140;BME280;29803;51.048;4.686;2022-12-13T07:33:24;101009.63;;;-8.61;100.00
44140;BME280;29803;51.048;4.686;2022-12-13T07:36:02;101013.16;;;-8.64;100.00
44140;BME280;29803;51.048;4.686;2022-12-13T07:38:34;101015.75;;;-8.64;100.00
44140;BME280;29803;51.048;4.686;2022-12-13T07:41:05;101026.16;;;-8.64;100.00
44140;BME280;29803;51.048;4.686;2022-12-13T07:43:36;101027.91;;;-8.64;100.00
44140;BME280;29803;51.048;4.686;2022-12-13T07:46:06;101022.69;;;-8.63;100.00
44140;BME280;29803;51.048;4.686;2022-12-13T07:48:37;101036.50;;;-8.61;100.00
44140;BME280;29803;51.048;4.686;2022-12-13T07:51:09;101031.19;;;-8.56;100.00
44140;BME280;29803;51.048;4.686;2022-12-13T07:53:40;101025.81;;;-8.50;100.00
44140;BME280;29803;51.048;4.686;2022-12-13T07:56:11;101033.41;;;-8.42;100.00
44140;BME280;29803;51.048;4.686;2022-12-13T07:58:41;101032.25;;;-8.34;100.00
44140;BME280;29803;51.048;4.686;2022-12-13T08:01:13;101032.91;;;-8.25;100.00
44140;BME280;29803;51.048;4.686;2022-12-13T08:03:46;101041.31;;;-8.16;100.00
44140;BME280;29803;51.048;4.686;2022-12-13T08:06:17;101033.19;;;-8.05;100.00
44140;BME280;29803;51.048;4.686;2022-12-13T08:08:49;101041.53;;;-7.92;100.00
44140;BME280;29803;51.048;4.686;2022-12-13T08:11:20;101041.22;;;-7.82;100.00
44140;BME280;29803;51.048;4.686;2022-12-13T08:13:52;101040.88;;;-7.71;100.00
44140;BME280;29803;51.048;4.686;2022-12-13T08:16:23;101051.63;;;-7.53;100.00
44140;BME280;29803;51.048;4.686;2022-12-13T08:18:53;101041.56;;;-7.36;100.00
44140;BME280;29803;51.048;4.686;2022-12-13T08:21:24;101050.53;;;-7.18;100.00
44140;BME280;29803;51.048;4.686;2022-12-13T08:23:54;101048.25;;;-7.01;100.00
44140;BME280;29803;51.048;4.686;2022-12-13T08:26:24;101041.28;;;-6.74;100.00
44140;BME280;29803;51.048;4.686;2022-12-13T08:28:55;101046.81;;;-6.33;100.00
44140;BME280;29803;51.048;4.686;2022-12-13T08:31:25;101047.31;;;-5.98;100.00
44140;BME280;29803;51.048;4.686;2022-12-13T08:33:56;101044.88;;;-5.58;100.00
44140;BME280;29803;51.048;4.686;2022-12-13T08:36:27;101049.69;;;-5.03;100.00
44140;BME280;29803;51.048;4.686;2022-12-13T08:38:57;101059.06;;;-4.55;100.00
44140;BME280;29803;51.048;4.686;2022-12-13T08:41:31;101057.34;;;-4.15;100.00
44140;BME280;29803;51.048;4.686;2022-12-13T08:44:02;101050.56;;;-3.82;100.00
44140;BME280;29803;51.048;4.686;2022-12-13T08:46:32;101059.81;;;-3.54;100.00
44140;BME280;29803;51.048;4.686;2022-12-13T08:49:02;101067.81;;;-3.39;100.00
44140;BME280;29803;51.048;4.686;2022-12-13T08:51:33;101062.00;;;-3.26;100.00
44140;BME280;29803;51.048;4.686;2022-12-13T08:54:03;101066.34;;;-3.08;100.00
44140;BME280;29803;51.048;4.686;2022-12-13T08:56:34;101070.22;;;-2.98;100.00
44140;BME280;29803;51.048;4.686;2022-12-13T08:59:05;101068.84;;;-3.05;100.00
44140;BME280;29803;51.048;4.686;2022-12-13T09:01:35;101064.28;;;-3.01;100.00
44140;BME280;29803;51.048;4.686;2022-12-13T09:04:06;101063.41;;;-2.66;100.00
44140;BME280;29803;51.048;4.686;2022-12-13T09:06:36;101064.56;;;-2.19;100.00
44140;BME280;29803;51.048;4.686;2022-12-13T09:09:07;101064.91;;;-1.76;100.00
44140;BME280;29803;51.048;4.686;2022-12-13T09:11:40;101072.06;;;-1.31;100.00
44140;BME280;29803;51.048;4.686;2022-12-13T09:14:11;101079.19;;;-0.86;100.00
44140;BME280;29803;51.048;4.686;2022-12-13T09:16:42;101064.53;;;-0.60;100.00
44140;BME280;29803;51.048;4.686;2022-12-13T09:19:12;101064.50;;;-0.30;100.00
44140;BME280;29803;51.048;4.686;2022-12-13T09:21:42;101079.47;;;-0.16;100.00
44140;BME280;29803;51.048;4.686;2022-12-13T09:24:13;101074.59;;;-0.52;100.00
44140;BME280;29803;51.048;4.686;2022-12-13T09:26:44;101066.06;;;-1.17;100.00
44140;BME280;29803;51.048;4.686;2022-12-13T09:29:15;101074.19;;;-1.53;100.00
44140;BME280;29803;51.048;4.686;2022-12-13T09:31:45;101077.34;;;-1.47;100.00
44140;BME280;29803;51.048;4.686;2022-12-13T09:34:16;101069.88;;;-1.07;100.00
44140;BME280;29803;51.048;4.686;2022-12-13T09:36:47;101072.44;;;-0.45;100.00
44140;BME280;29803;51.048;4.686;2022-12-13T09:39:17;101086.94;;;-0.08;100.00
44140;BME280;29803;51.048;4.686;2022-12-13T09:41:54;101072.34;;;0.15;100.00
44140;BME280;29803;51.048;4.686;2022-12-13T09:44:29;101063.31;;;0.33;100.00
44140;BME280;29803;51.048;4.686;2022-12-13T09:47:03;101062.94;;;0.11;100.00
44140;BME280;29803;51.048;4.686;2022-12-13T09:49:43;101065.09;;;-0.55;100.00
44140;BME280;29803;51.048;4.686;2022-12-13T09:52:15;101057.13;;;-0.99;100.00
44140;BME280;29803;51.048;4.686;2022-12-13T09:54:54;101058.56;;;-1.41;100.00
44140;BME280;29803;51.048;4.686;2022-12-13T09:57:28;101054.84;;;-1.68;100.00
44140;BME280;29803;51.048;4.686;2022-12-13T10:00:07;101054.38;;;-1.76;100.00
44140;BME280;29803;51.048;4.686;2022-12-13T10:02:55;101054.13;;;-1.88;100.00
44140;BME280;29803;51.048;4.686;2022-12-13T10:05:35;101053.19;;;-1.87;100.00
44140;BME280;29803;51.048;4.686;2022-12-13T10:08:14;101062.84;;;-1.87;100.00
44140;BME280;29803;51.048;4.686;2022-12-13T10:10:45;101050.63;;;-1.88;100.00
44140;BME280;29803;51.048;4.686;2022-12-13T10:16:05;101048.97;;;-1.58;100.00
44140;BME280;29803;51.048;4.686;2022-12-13T10:18:40;101048.63;;;-1.51;100.00
44140;BME280;29803;51.048;4.686;2022-12-13T10:21:32;101050.03;;;-1.44;100.00
44140;BME280;29803;51.048;4.686;2022-12-13T10:26:41;101044.72;;;-1.13;100.00
44140;BME280;29803;51.048;4.686;2022-12-13T10:29:12;101034.69;;;-1.06;100.00
44140;BME280;29803;51.048;4.686;2022-12-13T10:31:48;101028.78;;;-1.10;100.00
44140;BME280;29803;51.048;4.686;2022-12-13T10:34:22;101026.72;;;-1.05;100.00
44140;BME280;29803;51.048;4.686;2022-12-13T10:36:53;101025.06;;;-0.91;100.00
44140;BME280;29803;51.048;4.686;2022-12-13T10:39:39;101023.16;;;-0.73;100.00
44140;BME280;29803;51.048;4.686;2022-12-13T10:42:18;101011.69;;;-0.72;100.00
44140;BME280;29803;51.048;4.686;2022-12-13T10:45:08;101008.03;;;-0.70;100.00
44140;BME280;29803;51.048;4.686;2022-12-13T10:47:41;101016.94;;;-0.72;100.00
44140;BME280;29803;51.048;4.686;2022-12-13T10:50:23;101005.78;;;-0.62;100.00
44140;BME280;29803;51.048;4.686;2022-12-13T10:52:54;101007.59;;;-0.48;100.00
44140;BME280;29803;51.048;4.686;2022-12-13T10:55:35;101006.41;;;-0.28;100.00
44140;BME280;29803;51.048;4.686;2022-12-13T10:58:17;100996.69;;;-0.28;100.00
44140;BME280;29803;51.048;4.686;2022-12-13T11:00:48;100989.94;;;-0.17;100.00
44140;BME280;29803;51.048;4.686;2022-12-13T11:03:31;100988.41;;;-0.07;100.00
44140;BME280;29803;51.048;4.686;2022-12-13T11:06:15;100989.44;;;0.05;100.00
44140;BME280;29803;51.048;4.686;2022-12-13T11:08:49;100990.66;;;-0.01;100.00
44140;BME280;29803;51.048;4.686;2022-12-13T11:11:27;100985.59;;;-0.04;100.00
44140;BME280;29803;51.048;4.686;2022-12-13T11:13:59;100986.53;;;-0.05;100.00
44140;BME280;29803;51.048;4.686;2022-12-13T11:16:34;100986.81;;;0.05;100.00
44140;BME280;29803;51.048;4.686;2022-12-13T11:19:35;100977.47;;;-0.01;100.00
44140;BME280;29803;51.048;4.686;2022-12-13T11:22:08;100972.41;;;-0.04;100.00
44140;BME280;29803;51.048;4.686;2022-12-13T11:24:40;100971.06;;;0.03;100.00
44140;BME280;29803;51.048;4.686;2022-12-13T11:27:37;100961.66;;;0.13;100.00
44140;BME280;29803;51.048;4.686;2022-12-13T11:41:19;100943.34;;;0.24;100.00
44140;BME280;29803;51.048;4.686;2022-12-13T11:43:55;100941.75;;;0.22;100.00
44140;BME280;29803;51.048;4.686;2022-12-13T11:46:38;100949.16;;;0.30;100.00
44140;BME280;29803;51.048;4.686;2022-12-13T11:49:17;100938.88;;;0.39;100.00
44140;BME280;29803;51.048;4.686;2022-12-13T11:55:03;100927.84;;;0.47;100.00
44140;BME280;29803;51.048;4.686;2022-12-13T11:57:50;100921.91;;;0.43;100.00
44140;BME280;29803;51.048;4.686;2022-12-13T12:00:28;100911.00;;;0.35;100.00
44140;BME280;29803;51.048;4.686;2022-12-13T12:03:18;100909.59;;;0.30;100.00
44140;BME280;29803;51.048;4.686;2022-12-13T12:06:13;100898.19;;;0.29;100.00
44140;BME280;29803;51.048;4.686;2022-12-13T12:13:59;100900.81;;;0.29;100.00
44140;BME280;29803;51.048;4.686;2022-12-13T12:16:39;100900.28;;;0.24;100.00
44140;BME280;29803;51.048;4.686;2022-12-13T12:19:18;100898.41;;;0.26;100.00
44140;BME280;29803;51.048;4.686;2022-12-13T12:27:34;100901.38;;;0.34;100.00
44140;BME280;29803;51.048;4.686;2022-12-13T12:30:20;100895.34;;;0.32;100.00
44140;BME280;29803;51.048;4.686;2022-12-13T12:38:25;100906.94;;;0.30;100.00
44140;BME280;29803;51.048;4.686;2022-12-13T12:55:41;100874.31;;;0.04;100.00
44140;BME280;29803;51.048;4.686;2022-12-13T13:03:46;100873.50;;;-0.11;100.00
44140;BME280;29803;51.048;4.686;2022-12-13T13:06:26;100869.47;;;-0.17;100.00
44140;BME280;29803;51.048;4.686;2022-12-13T13:09:17;100872.22;;;-0.18;100.00
44140;BME280;29803;51.048;4.686;2022-12-13T13:11:49;100872.31;;;-0.20;100.00
44140;BME280;29803;51.048;4.686;2022-12-13T13:14:27;100860.34;;;-0.26;100.00
44140;BME280;29803;51.048;4.686;2022-12-13T13:16:59;100855.47;;;-0.32;100.00
44140;BME280;29803;51.048;4.686;2022-12-13T13:19:53;100848.91;;;-0.39;100.00
44140;BME280;29803;51.048;4.686;2022-12-13T13:22:35;100855.59;;;-0.47;100.00
44140;BME280;29803;51.048;4.686;2022-12-13T13:27:41;100851.38;;;-0.50;100.00
44140;BME280;29803;51.048;4.686;2022-12-13T13:30:20;100852.38;;;-0.53;100.00
44140;BME280;29803;51.048;4.686;2022-12-13T13:32:54;100858.72;;;-0.55;100.00
44140;BME280;29803;51.048;4.686;2022-12-13T13:38:04;100853.16;;;-0.65;100.00
44140;BME280;29803;51.048;4.686;2022-12-13T13:40:53;100835.34;;;-0.61;100.00
44140;BME280;29803;51.048;4.686;2022-12-13T13:43:28;100825.38;;;-0.70;100.00
44140;BME280;29803;51.048;4.686;2022-12-13T13:46:10;100832.72;;;-0.75;100.00
44140;BME280;29803;51.048;4.686;2022-12-13T13:49:00;100824.56;;;-0.85;100.00
44140;BME280;29803;51.048;4.686;2022-12-13T13:51:53;100826.31;;;-0.86;100.00
44140;BME280;29803;51.048;4.686;2022-12-13T14:08:58;100804.09;;;-1.24;100.00
44140;BME280;29803;51.048;4.686;2022-12-13T14:12:02;100806.34;;;-1.33;100.00
44140;BME280;29803;51.048;4.686;2022-12-13T14:15:18;100809.81;;;-1.32;100.00
44140;BME280;29803;51.048;4.686;2022-12-13T14:29:33;100799.38;;;-1.34;100.00
44140;BME280;29803;51.048;4.686;2022-12-13T14:32:23;100799.56;;;-1.37;100.00
44140;BME280;29803;51.048;4.686;2022-12-13T14:34:55;100790.34;;;-1.44;100.00
44140;BME280;29803;51.048;4.686;2022-12-13T14:37:29;100794.25;;;-1.51;100.00
44140;BME280;29803;51.048;4.686;2022-12-13T14:40:11;100782.41;;;-1.58;100.00
44140;BME280;29803;51.048;4.686;2022-12-13T14:42:51;100782.41;;;-1.58;100.00
44140;BME280;29803;51.048;4.686;2022-12-13T14:45:31;100778.09;;;-1.59;100.00
44140;BME280;29803;51.048;4.686;2022-12-13T14:48:04;100784.47;;;-1.63;100.00
44140;BME280;29803;51.048;4.686;2022-12-13T14:50:36;100776.00;;;-1.68;100.00
44140;BME280;29803;51.048;4.686;2022-12-13T14:53:22;100777.78;;;-1.69;100.00
44140;BME280;29803;51.048;4.686;2022-12-13T14:58:36;100773.47;;;-1.70;100.00
44140;BME280;29803;51.048;4.686;2022-12-13T15:01:37;100771.75;;;-1.71;100.00
44140;BME280;29803;51.048;4.686;2022-12-13T15:07:20;100768.63;;;-1.77;100.00
44140;BME280;29803;51.048;4.686;2022-12-13T15:09:56;100772.38;;;-1.82;100.00